Time;durP1;ratioP1;P1;durP2;ratioP2;P2;SDS_P1;SDS_P2;PMS_P1;PMS_P2;Temp;Humidity;BMP_temperature;BMP_pressure;BME280_temperature;BME280_humidity;BME280_pressure;Samples;Min_cycle;Max_cycle;Signal;HPM_P1;HPM_P2
2023/02/09 00:01:30;;;;;;;21.90;12.00;;;-6.00;99.90;;;;;;5052100;28;20483;-78
2023/02/09 00:03:58;;;;;;;26.13;12.30;;;-6.00;99.90;;;;;;5044382;28;20090;-78
2023/02/09 00:06:25;;;;;;;26.77;12.07;;;-6.10;99.90;;;;;;5041663;28;20321;-78
2023/02/09 00:08:50;;;;;;;26.00;13.27;;;-6.10;99.90;;;;;;5034667;28;20036;-78
2023/02/09 00:13:21;;;;;;;28.83;13.10;;;-6.10;99.90;;;;;;5045366;28;20025;-78
2023/02/09 00:14:09;;;;;;;28.67;13.53;;;-6.10;99.90;;;;;;5048639;28;20034;-78
2023/02/09 00:16:35;;;;;;;26.00;12.90;;;-6.20;99.90;;;;;;5035559;28;20021;-78
2023/02/09 00:19:00;;;;;;;25.60;12.13;;;-6.20;99.90;;;;;;5037002;28;20612;-78
2023/02/09 00:21:26;;;;;;;23.33;11.87;;;-6.20;99.90;;;;;;5034934;28;20439;-78
2023/02/09 00:23:51;;;;;;;28.40;12.40;;;-6.20;99.90;;;;;;5048198;28;20068;-78
2023/02/09 00:26:17;;;;;;;23.77;11.97;;;-6.20;99.90;;;;;;5036044;28;20103;-78
2023/02/09 00:28:43;;;;;;;23.13;12.53;;;-6.30;99.90;;;;;;5046833;28;20366;-78
2023/02/09 00:31:11;;;;;;;28.23;13.27;;;-6.30;99.90;;;;;;5053631;28;20459;-78
2023/02/09 00:33:37;;;;;;;28.87;13.47;;;-6.30;99.90;;;;;;5039186;28;20079;-78
2023/02/09 00:36:07;;;;;;;30.00;13.70;;;-6.30;99.90;;;;;;5049348;28;20025;-78
2023/02/09 00:38:34;;;;;;;27.50;13.17;;;-6.30;99.90;;;;;;5049301;28;20032;-78
2023/02/09 00:41:00;;;;;;;27.50;13.10;;;-6.30;99.90;;;;;;5044965;28;20025;-78
2023/02/09 00:43:25;;;;;;;29.67;14.37;;;-6.30;99.90;;;;;;5036959;28;20040;-78
2023/02/09 00:45:51;;;;;;;23.77;13.20;;;-6.30;99.90;;;;;;5042193;28;20025;-78
2023/02/09 00:48:16;;;;;;;23.03;12.03;;;-6.30;99.90;;;;;;5048601;28;20036;-78
2023/02/09 00:50:42;;;;;;;24.73;13.37;;;-6.30;99.90;;;;;;5047020;28;20057;-78
2023/02/09 00:53:07;;;;;;;33.13;14.07;;;-6.40;99.90;;;;;;5040771;28;20041;-78
2023/02/09 00:55:33;;;;;;;28.63;13.60;;;-6.40;99.90;;;;;;5043381;28;20018;-78
2023/02/09 00:57:58;;;;;;;27.93;13.63;;;-6.40;99.90;;;;;;5047095;28;20108;-78
2023/02/09 01:00:25;;;;;;;27.70;13.80;;;-6.40;99.90;;;;;;5039864;28;20074;-78
2023/02/09 01:02:50;;;;;;;30.23;13.87;;;-6.40;99.90;;;;;;5043574;28;20029;-78
2023/02/09 01:05:16;;;;;;;27.40;14.30;;;-6.40;99.90;;;;;;5039521;28;20025;-78
2023/02/09 01:07:42;;;;;;;25.57;13.33;;;-6.40;99.90;;;;;;5049648;28;20382;-78
2023/02/09 01:10:09;;;;;;;27.00;13.73;;;-6.50;99.90;;;;;;5036471;28;20045;-78
2023/02/09 01:12:36;;;;;;;28.67;13.70;;;-6.50;99.90;;;;;;5050663;28;20071;-78
2023/02/09 01:15:02;;;;;;;30.47;14.33;;;-6.50;99.90;;;;;;5034112;28;20030;-78
2023/02/09 01:17:28;;;;;;;29.93;13.90;;;-6.50;99.90;;;;;;5033498;28;20025;-78
2023/02/09 01:19:54;;;;;;;28.63;14.07;;;-6.50;99.90;;;;;;5033402;28;20063;-78
2023/02/09 01:22:20;;;;;;;28.00;13.93;;;-6.50;99.90;;;;;;5039946;28;20099;-78
2023/02/09 01:24:46;;;;;;;30.03;14.13;;;-6.60;99.90;;;;;;5040162;28;20029;-78
2023/02/09 01:27:12;;;;;;;30.03;13.60;;;-6.60;99.90;;;;;;5033386;28;20283;-78
2023/02/09 01:29:38;;;;;;;28.13;14.03;;;-6.60;99.90;;;;;;5033411;28;20459;-78
2023/02/09 01:32:03;;;;;;;32.07;14.73;;;-6.70;99.90;;;;;;5034379;28;20025;-78
2023/02/09 01:34:29;;;;;;;30.23;13.73;;;-6.70;99.90;;;;;;5034010;28;20049;-78
2023/02/09 01:36:55;;;;;;;27.63;12.63;;;-6.70;99.90;;;;;;5033181;28;20021;-78
2023/02/09 01:39:20;;;;;;;27.77;13.17;;;-6.80;99.90;;;;;;5035507;28;20048;-78
2023/02/09 01:41:46;;;;;;;30.03;12.50;;;-6.80;99.90;;;;;;5048364;28;20075;-78
2023/02/09 01:44:11;;;;;;;26.03;12.60;;;-6.90;99.90;;;;;;5052731;28;20035;-78
2023/02/09 01:46:37;;;;;;;32.17;13.73;;;-6.90;99.90;;;;;;5037499;28;20072;-78
2023/02/09 01:49:22;;;;;;;31.23;13.93;;;-6.90;99.90;;;;;;5051998;28;20032;-78
2023/02/09 01:51:59;;;;;;;27.00;13.47;;;-6.90;99.90;;;;;;5027705;28;20075;-78
2023/02/09 01:54:33;;;;;;;26.80;13.40;;;-7.00;99.90;;;;;;5043105;28;20284;-78
2023/02/09 01:57:06;;;;;;;28.90;13.57;;;-6.90;99.90;;;;;;5044435;28;20029;-78
2023/02/09 01:59:35;;;;;;;31.30;14.57;;;-7.00;99.90;;;;;;5043600;28;20358;-78
2023/02/09 02:02:02;;;;;;;30.17;13.63;;;-7.00;99.90;;;;;;5036106;28;20032;-78
2023/02/09 02:04:29;;;;;;;28.00;14.10;;;-7.00;99.90;;;;;;5035878;28;20740;-78
2023/02/09 02:07:04;;;;;;;28.40;13.00;;;-7.00;99.90;;;;;;5035011;28;20024;-78
2023/02/09 02:09:29;;;;;;;26.38;12.93;;;-7.00;99.90;;;;;;5038287;28;20284;-78
2023/02/09 02:11:55;;;;;;;27.90;13.43;;;-7.00;99.90;;;;;;5036238;28;20462;-78
2023/02/09 02:14:31;;;;;;;27.40;13.77;;;-7.00;99.90;;;;;;5041085;28;20026;-78
2023/02/09 02:17:38;;;;;;;27.30;13.30;;;-7.00;99.90;;;;;;5029847;28;20078;-78
2023/02/09 02:20:40;;;;;;;27.37;13.03;;;-7.00;99.90;;;;;;4991895;28;20069;-79
2023/02/09 02:23:25;;;;;;;24.60;12.90;;;-7.00;99.90;;;;;;5011176;28;20037;-78
2023/02/09 02:26:19;;;;;;;32.63;13.80;;;-6.90;99.90;;;;;;5037850;28;20256;-78
2023/02/09 02:29:06;;;;;;;26.63;12.97;;;-7.00;99.90;;;;;;5041511;28;20263;-78
2023/02/09 02:31:42;;;;;;;27.87;13.83;;;-7.00;99.90;;;;;;5040429;28;20263;-78
2023/02/09 02:34:25;;;;;;;32.57;13.43;;;-7.00;99.90;;;;;;5036506;28;20757;-78
2023/02/09 02:37:25;;;;;;;27.70;13.53;;;-7.00;99.90;;;;;;5035673;28;20264;-78
2023/02/09 02:40:20;;;;;;;23.07;13.07;;;-7.00;99.90;;;;;;5046322;28;20728;-78
2023/02/09 02:42:51;;;;;;;30.58;13.20;;;-7.00;99.90;;;;;;5037875;28;20026;-78
2023/02/09 02:45:41;;;;;;;28.30;13.47;;;-7.10;99.90;;;;;;5044188;28;20045;-78
2023/02/09 02:48:32;;;;;;;33.10;13.73;;;-7.10;99.90;;;;;;5016531;28;20265;-78
2023/02/09 02:51:22;;;;;;;28.47;12.87;;;-7.10;99.90;;;;;;5043752;28;20260;-78
2023/02/09 02:53:53;;;;;;;27.03;13.47;;;-7.10;99.90;;;;;;5020462;28;20284;-78
2023/02/09 02:56:23;;;;;;;24.67;13.23;;;-7.20;99.90;;;;;;5045695;28;20017;-78
2023/02/09 02:58:51;;;;;;;29.07;13.13;;;-7.30;99.90;;;;;;5052078;28;20330;-78
2023/02/09 03:01:20;;;;;;;30.03;13.90;;;-7.30;99.90;;;;;;5036287;28;20271;-78
2023/02/09 03:03:47;;;;;;;28.40;12.53;;;-7.30;99.90;;;;;;5045558;28;20259;-78
2023/02/09 03:06:13;;;;;;;28.43;13.07;;;-7.30;99.90;;;;;;5039230;28;20268;-78
2023/02/09 03:09:05;;;;;;;25.80;12.33;;;-7.40;99.90;;;;;;5044674;28;20346;-78
2023/02/09 03:11:38;;;;;;;28.63;13.73;;;-7.40;99.90;;;;;;5016117;28;20342;-78
2023/02/09 03:14:37;;;;;;;24.90;12.47;;;-7.40;99.90;;;;;;5016384;28;20793;-78
2023/02/09 03:17:16;;;;;;;25.70;12.47;;;-7.40;99.90;;;;;;5038349;28;20343;-78
2023/02/09 03:19:58;;;;;;;26.03;12.20;;;-7.30;99.90;;;;;;5035261;28;20355;-78
2023/02/09 03:22:46;;;;;;;32.03;13.33;;;-7.30;99.90;;;;;;5036178;28;20272;-78
2023/02/09 03:25:20;;;;;;;26.87;13.30;;;-7.30;99.90;;;;;;5050426;28;20290;-78
2023/02/09 03:27:57;;;;;;;35.03;13.45;;;-7.40;99.90;;;;;;5046298;28;20306;-78
2023/02/09 03:30:24;;;;;;;37.13;14.07;;;-7.40;99.90;;;;;;5040863;28;20029;-78
2023/02/09 03:32:55;;;;;;;35.80;15.03;;;-7.40;99.90;;;;;;5038409;28;20271;-78
2023/02/09 03:35:23;;;;;;;32.27;14.47;;;-7.50;99.90;;;;;;5041170;28;20254;-78
2023/02/09 03:37:49;;;;;;;33.30;15.50;;;-7.50;99.90;;;;;;5044037;28;20251;-78
2023/02/09 03:40:14;;;;;;;32.10;14.40;;;-7.50;99.90;;;;;;5046967;28;20262;-78
2023/02/09 03:42:40;;;;;;;36.30;14.33;;;-7.50;99.90;;;;;;5035921;28;20029;-78
2023/02/09 03:45:06;;;;;;;31.43;14.57;;;-7.50;99.90;;;;;;5054233;28;20029;-77
2023/02/09 03:47:33;;;;;;;29.27;13.23;;;-7.50;99.90;;;;;;5047422;28;20045;-78
2023/02/09 03:49:58;;;;;;;30.67;12.73;;;-7.50;99.90;;;;;;5035952;28;20256;-78
2023/02/09 03:52:24;;;;;;;26.43;13.93;;;-7.60;99.90;;;;;;5049389;28;20350;-77
2023/02/09 03:54:50;;;;;;;30.43;13.57;;;-7.60;99.90;;;;;;5042592;28;20025;-77
2023/02/09 03:57:15;;;;;;;32.13;13.23;;;-7.60;99.90;;;;;;5044048;28;20017;-77
2023/02/09 03:59:41;;;;;;;28.80;12.70;;;-7.60;99.90;;;;;;5055371;28;20539;-78
2023/02/09 04:02:08;;;;;;;29.13;13.47;;;-7.60;99.90;;;;;;5045587;28;20021;-77
2023/02/09 04:04:34;;;;;;;30.47;14.33;;;-7.60;99.90;;;;;;5046541;28;20033;-77
2023/02/09 04:06:59;;;;;;;29.07;13.90;;;-7.60;99.90;;;;;;5045735;28;20271;-77
2023/02/09 04:09:26;;;;;;;32.80;15.30;;;-7.60;99.90;;;;;;5037473;28;20276;-77
2023/02/09 04:11:51;;;;;;;32.93;14.53;;;-7.60;99.90;;;;;;5046208;28;20354;-77
2023/02/09 04:14:17;;;;;;;29.90;15.40;;;-7.70;99.90;;;;;;5038709;28;20292;-77
2023/02/09 04:16:43;;;;;;;33.47;16.00;;;-7.70;99.90;;;;;;5035159;28;20017;-77
2023/02/09 04:19:09;;;;;;;35.90;15.40;;;-7.70;99.90;;;;;;5054605;28;20036;-77
2023/02/09 04:21:38;;;;;;;31.53;16.00;;;-7.70;99.90;;;;;;5037383;28;20073;-78
2023/02/09 04:24:05;;;;;;;30.03;14.30;;;-7.70;99.90;;;;;;5050142;28;20017;-77
2023/02/09 04:26:32;;;;;;;32.60;14.10;;;-7.70;99.90;;;;;;5040153;28;20721;-77
2023/02/09 04:28:57;;;;;;;36.40;17.47;;;-7.70;99.90;;;;;;5043382;28;20255;-77
2023/02/09 04:31:23;;;;;;;39.97;17.67;;;-7.70;99.90;;;;;;5044096;28;20256;-77
2023/02/09 04:33:49;;;;;;;35.27;16.63;;;-7.80;99.90;;;;;;5039100;28;20029;-78
2023/02/09 04:36:14;;;;;;;38.13;16.43;;;-7.80;99.90;;;;;;5048348;28;20033;-77
2023/02/09 04:38:40;;;;;;;34.60;15.43;;;-7.80;99.90;;;;;;5048218;28;20572;-77
2023/02/09 04:41:06;;;;;;;33.17;16.20;;;-7.70;99.90;;;;;;5048418;28;20021;-77
2023/02/09 04:43:32;;;;;;;34.27;17.03;;;-7.80;99.90;;;;;;5041788;28;20101;-78
2023/02/09 04:45:58;;;;;;;38.30;18.17;;;-7.80;99.90;;;;;;5038244;28;20025;-77
2023/02/09 04:48:25;;;;;;;34.07;15.53;;;-7.80;99.90;;;;;;5046079;28;20264;-77
2023/02/09 04:50:51;;;;;;;36.27;16.63;;;-7.80;99.90;;;;;;5054027;28;20334;-77
2023/02/09 04:53:17;;;;;;;31.53;15.10;;;-7.80;99.90;;;;;;5024577;28;21105;-79
2023/02/09 04:55:44;;;;;;;37.37;16.07;;;-7.70;99.90;;;;;;5022995;28;20263;-79
2023/02/09 05:01:00;;;;;;;39.70;18.90;;;-7.80;99.90;;;;;;5024091;28;20387;-78
2023/02/09 05:03:26;;;;;;;38.13;17.63;;;-7.80;99.90;;;;;;5024148;28;20271;-79
2023/02/09 05:06:00;;;;;;;38.03;17.90;;;-7.80;99.90;;;;;;5024666;28;20248;-79
2023/02/09 05:08:26;;;;;;;37.35;17.95;;;-7.80;99.90;;;;;;5022446;28;20025;-79
2023/02/09 05:10:52;;;;;;;38.20;17.53;;;-7.80;99.90;;;;;;5023747;28;20524;-79
2023/02/09 05:13:19;;;;;;;39.70;16.23;;;-7.80;99.90;;;;;;5026070;28;20112;-69
2023/02/09 05:15:45;;;;;;;41.20;17.83;;;-7.70;99.90;;;;;;5025189;28;21110;-78
2023/02/09 05:18:11;;;;;;;35.17;17.33;;;-7.70;99.90;;;;;;5023925;28;20271;-78
2023/02/09 05:20:37;;;;;;;41.93;18.43;;;-7.80;99.90;;;;;;5023548;28;20102;-79
2023/02/09 05:23:03;;;;;;;46.80;19.50;;;-7.80;99.90;;;;;;5023835;28;20259;-79
2023/02/09 05:25:29;;;;;;;46.57;20.00;;;-7.80;99.90;;;;;;5024663;28;20040;-78
2023/02/09 05:27:54;;;;;;;43.30;19.80;;;-7.90;99.90;;;;;;5038940;28;20029;-79
2023/02/09 05:30:20;;;;;;;49.63;19.40;;;-7.90;99.90;;;;;;5053643;28;20032;-79
2023/02/09 05:32:46;;;;;;;41.70;18.53;;;-7.90;99.90;;;;;;5042875;28;20029;-79
2023/02/09 05:35:12;;;;;;;35.67;17.27;;;-7.90;99.90;;;;;;5041101;28;20787;-79
2023/02/09 05:37:37;;;;;;;40.10;17.57;;;-7.90;99.90;;;;;;5034677;28;20017;-79
2023/02/09 05:40:03;;;;;;;37.10;17.57;;;-7.90;99.90;;;;;;5031387;28;20516;-79
2023/02/09 05:42:29;;;;;;;38.03;17.07;;;-7.90;99.90;;;;;;5035226;28;20061;-79
2023/02/09 05:44:54;;;;;;;38.67;16.50;;;-7.90;99.90;;;;;;5048116;28;20724;-79
2023/02/09 05:47:23;;;;;;;34.30;15.87;;;-7.90;99.90;;;;;;5032546;28;20032;-79
2023/02/09 05:49:49;;;;;;;33.03;16.70;;;-7.90;99.90;;;;;;5042503;28;20033;-79
2023/02/09 05:52:15;;;;;;;38.80;18.17;;;-7.90;99.90;;;;;;5042689;28;20263;-79
2023/02/09 05:54:41;;;;;;;36.17;16.97;;;-7.90;99.90;;;;;;5023517;28;20113;-80
2023/02/09 05:57:07;;;;;;;38.10;17.43;;;-7.90;99.90;;;;;;5022625;28;20321;-80
2023/02/09 05:59:33;;;;;;;36.67;17.13;;;-7.90;99.90;;;;;;5022936;28;20112;-79
2023/02/09 06:01:59;;;;;;;40.17;16.63;;;-8.00;99.90;;;;;;5019821;28;20284;-79
2023/02/09 06:04:26;;;;;;;37.20;17.40;;;-8.00;99.90;;;;;;5022713;28;20033;-79
2023/02/09 06:07:10;;;;;;;40.43;17.73;;;-8.00;99.90;;;;;;5035999;28;20322;-79
2023/02/09 06:09:35;;;;;;;38.17;18.17;;;-8.00;99.90;;;;;;5050025;28;20275;-79
2023/02/09 06:12:01;;;;;;;39.97;17.40;;;-8.00;99.90;;;;;;5047579;28;20259;-79
2023/02/09 06:14:26;;;;;;;33.80;17.53;;;-8.00;99.90;;;;;;5034761;28;20029;-79
2023/02/09 06:16:52;;;;;;;37.17;18.70;;;-8.10;99.90;;;;;;5025345;28;20124;-80
2023/02/09 06:19:20;;;;;;;39.07;18.00;;;-8.10;99.90;;;;;;5026318;28;20040;-80
2023/02/09 06:21:45;;;;;;;41.20;18.10;;;-8.10;99.90;;;;;;5025536;28;20152;-80
2023/02/09 06:24:12;;;;;;;40.77;17.77;;;-8.10;99.90;;;;;;5021256;28;20271;-80
2023/02/09 06:26:39;;;;;;;44.70;18.37;;;-8.00;99.90;;;;;;5022739;28;20087;-80
2023/02/09 06:29:04;;;;;;;40.93;18.57;;;-8.00;99.90;;;;;;5037732;28;20275;-78
2023/02/09 06:31:33;;;;;;;43.33;18.67;;;-8.00;99.90;;;;;;5050507;28;20276;-78
2023/02/09 06:33:59;;;;;;;41.87;18.47;;;-8.00;99.90;;;;;;5035774;28;20021;-78
2023/02/09 06:36:24;;;;;;;39.77;19.10;;;-8.00;99.90;;;;;;5047385;28;20310;-78
2023/02/09 06:38:50;;;;;;;41.93;18.80;;;-8.00;99.90;;;;;;5037881;28;20021;-78
2023/02/09 06:41:15;;;;;;;41.33;18.90;;;-8.00;99.90;;;;;;5045505;28;20347;-78
2023/02/09 06:43:41;;;;;;;45.53;20.00;;;-8.00;99.90;;;;;;5053669;28;20068;-78
2023/02/09 06:46:11;;;;;;;45.30;20.27;;;-8.00;99.90;;;;;;5036826;28;20032;-78
2023/02/09 06:48:38;;;;;;;45.23;19.87;;;-7.90;99.90;;;;;;5041044;28;20017;-78
2023/02/09 06:51:21;;;;;;;45.60;20.47;;;-7.90;99.90;;;;;;5035337;28;20264;-78
2023/02/09 06:53:47;;;;;;;51.40;22.07;;;-7.80;99.90;;;;;;5043925;28;20279;-78
2023/02/09 06:56:13;;;;;;;45.50;20.97;;;-7.80;99.90;;;;;;5038457;28;20643;-78
2023/02/09 06:58:42;;;;;;;49.60;21.23;;;-7.80;99.90;;;;;;5036108;28;20022;-78
2023/02/09 07:01:14;;;;;;;44.97;21.07;;;-7.70;99.90;;;;;;5026283;28;20028;-78
2023/02/09 07:03:40;;;;;;;49.40;21.33;;;-7.60;99.90;;;;;;5037094;28;20299;-78
2023/02/09 07:06:09;;;;;;;49.93;21.83;;;-7.60;99.90;;;;;;5002720;28;20410;-80
2023/02/09 07:08:35;;;;;;;43.40;21.23;;;-7.50;99.90;;;;;;5013889;28;20048;-80
2023/02/09 07:11:03;;;;;;;45.00;22.07;;;-7.40;99.90;;;;;;5024670;28;20268;-80
2023/02/09 07:13:30;;;;;;;49.57;23.03;;;-7.40;99.90;;;;;;5014781;28;20296;-80
2023/02/09 07:15:57;;;;;;;43.67;22.17;;;-7.30;99.90;;;;;;5052712;28;20692;-80
2023/02/09 07:18:25;;;;;;;45.60;22.23;;;-7.20;99.90;;;;;;5023315;28;20260;-80
2023/02/09 07:21:00;;;;;;;45.93;20.90;;;-7.10;99.90;;;;;;5026012;28;20673;-79
2023/02/09 07:23:26;;;;;;;45.33;22.45;;;-7.00;99.90;;;;;;5044832;28;20347;-79
2023/02/09 07:25:51;;;;;;;47.17;22.47;;;-7.00;99.90;;;;;;5048272;28;20067;-79
2023/02/09 07:28:19;;;;;;;47.77;22.10;;;-6.90;99.90;;;;;;5044380;28;20117;-81
2023/02/09 07:30:51;;;;;;;49.00;22.60;;;-6.80;99.90;;;;;;5040544;28;20053;-81
2023/02/09 07:33:19;;;;;;;44.60;22.00;;;-6.80;99.90;;;;;;5026563;28;20290;-79
2023/02/09 07:35:45;;;;;;;45.07;23.13;;;-6.70;99.90;;;;;;5025889;28;20332;-80
2023/02/09 07:38:10;;;;;;;54.47;25.17;;;-6.60;99.90;;;;;;5025295;28;20307;-80
2023/02/09 07:40:37;;;;;;;45.10;23.80;;;-6.50;99.90;;;;;;5023613;28;20434;-80
2023/02/09 07:43:03;;;;;;;54.77;25.17;;;-6.40;99.90;;;;;;5029919;28;20420;-80
2023/02/09 07:45:29;;;;;;;45.20;23.87;;;-6.30;99.90;;;;;;5034314;28;20297;-80
2023/02/09 07:47:54;;;;;;;48.47;24.50;;;-6.20;99.90;;;;;;5038312;28;20013;-80
2023/02/09 07:50:20;;;;;;;54.77;24.97;;;-6.10;99.90;;;;;;5041173;28;20053;-80
2023/02/09 07:52:46;;;;;;;54.00;25.17;;;-6.00;99.90;;;;;;5037572;28;20025;-81
2023/02/09 07:55:11;;;;;;;48.53;25.10;;;-5.90;99.90;;;;;;5035828;28;20405;-80
2023/02/09 07:57:37;;;;;;;49.83;25.70;;;-5.80;99.90;;;;;;5049725;28;20040;-80
2023/02/09 08:00:03;;;;;;;47.93;24.00;;;-5.70;99.90;;;;;;5042329;28;20029;-81
2023/02/09 08:02:36;;;;;;;45.80;23.67;;;-5.60;99.90;;;;;;5024931;28;20829;-82
2023/02/09 08:05:08;;;;;;;48.90;22.87;;;-5.40;99.90;;;;;;5019230;28;20018;-82
2023/02/09 08:07:35;;;;;;;46.67;23.50;;;-5.20;99.90;;;;;;5017592;28;20564;-81
2023/02/09 08:10:04;;;;;;;42.87;22.43;;;-5.10;99.90;;;;;;5025476;28;20379;-82
2023/02/09 08:15:17;;;;;;;44.80;22.88;;;-4.90;99.90;;;;;;5035005;28;20040;-82
2023/02/09 08:17:43;;;;;;;43.50;22.40;;;-4.70;99.90;;;;;;5047322;28;20025;-81
2023/02/09 08:20:13;;;;;;;41.50;21.93;;;-4.50;99.90;;;;;;5039255;28;20021;-82
2023/02/09 08:22:44;;;;;;;38.23;20.53;;;-4.40;99.90;;;;;;5033088;28;20017;-82
2023/02/09 08:25:09;;;;;;;46.53;21.90;;;-4.20;99.90;;;;;;5042030;28;20025;-82
2023/02/09 08:27:38;;;;;;;40.17;20.63;;;-4.00;99.90;;;;;;5034819;28;20022;-82
2023/02/09 08:30:03;;;;;;;44.13;21.50;;;-3.90;99.90;;;;;;5034863;28;20036;-81
2023/02/09 08:32:29;;;;;;;42.60;21.43;;;-3.70;99.90;;;;;;5033285;28;20029;-82
2023/02/09 08:34:55;;;;;;;41.70;21.10;;;-3.60;99.90;;;;;;5034720;28;20605;-82
2023/02/09 08:37:20;;;;;;;41.43;21.40;;;-3.50;99.90;;;;;;5034979;28;20537;-81
2023/02/09 08:39:46;;;;;;;38.83;20.40;;;-3.30;99.90;;;;;;5033645;28;20017;-82
2023/02/09 08:42:11;;;;;;;35.70;19.63;;;-3.20;99.90;;;;;;5039537;28;20504;-82
2023/02/09 08:44:37;;;;;;;36.93;21.23;;;-3.00;99.90;;;;;;5053797;28;20033;-82
2023/02/09 08:47:02;;;;;;;38.30;21.03;;;-2.80;99.90;;;;;;5046030;28;20120;-82
2023/02/09 08:49:28;;;;;;;37.87;21.03;;;-2.60;99.90;;;;;;5034684;28;20100;-81
2023/02/09 08:51:53;;;;;;;41.00;20.20;;;-2.50;99.90;;;;;;5034406;28;20025;-81
2023/02/09 08:54:19;;;;;;;35.83;19.47;;;-2.30;99.90;;;;;;5032832;28;20470;-82
2023/02/09 08:56:45;;;;;;;34.33;17.93;;;-2.10;99.90;;;;;;5034536;28;20453;-82
2023/02/09 08:59:12;;;;;;;34.40;17.80;;;-2.00;99.90;;;;;;5033075;28;20021;-82
2023/02/09 09:01:39;;;;;;;34.90;19.67;;;-1.80;99.90;;;;;;5043689;28;20013;-81
2023/02/09 09:04:05;;;;;;;31.30;16.87;;;-1.80;99.90;;;;;;5052518;28;20458;-82
2023/02/09 09:06:34;;;;;;;30.43;16.67;;;-1.70;99.90;;;;;;5033000;28;20033;-81
2023/02/09 09:08:59;;;;;;;30.70;17.30;;;-1.60;99.90;;;;;;5051794;28;20381;-81
2023/02/09 09:11:25;;;;;;;34.80;18.27;;;-1.60;99.90;;;;;;5053753;28;20025;-81
2023/02/09 09:13:51;;;;;;;29.37;16.70;;;-1.50;99.90;;;;;;5034590;28;20057;-82
2023/02/09 09:16:19;;;;;;;28.93;16.67;;;-1.30;99.90;;;;;;5032475;28;20066;-82
2023/02/09 09:18:45;;;;;;;30.43;17.13;;;-1.20;99.90;;;;;;5034064;28;20025;-81
2023/02/09 09:21:12;;;;;;;28.17;17.07;;;-1.10;99.90;;;;;;5036962;28;20036;-82
2023/02/09 09:23:38;;;;;;;30.80;17.17;;;-1.10;99.90;;;;;;5047695;28;20021;-82
2023/02/09 09:26:04;;;;;;;32.43;16.60;;;-1.00;99.90;;;;;;5037692;28;20401;-82
2023/02/09 09:28:30;;;;;;;28.60;15.77;;;-0.90;99.90;;;;;;5035183;28;20044;-82
2023/02/09 09:30:58;;;;;;;26.47;15.50;;;-0.80;99.90;;;;;;5035511;28;20025;-82
2023/02/09 09:33:23;;;;;;;29.57;15.30;;;-0.80;99.90;;;;;;5041839;28;20110;-82
2023/02/09 09:35:51;;;;;;;25.13;15.13;;;-0.70;99.90;;;;;;5033437;28;20435;-82
2023/02/09 09:38:17;;;;;;;25.13;14.57;;;-0.60;99.90;;;;;;5018030;28;21311;-83
2023/02/09 09:40:44;;;;;;;25.33;14.20;;;-0.60;99.90;;;;;;5024977;28;20033;-82
2023/02/09 09:43:34;;;;;;;29.17;14.17;;;-0.60;99.90;;;;;;5041485;28;20061;-82
2023/02/09 09:46:03;;;;;;;25.73;14.70;;;-0.60;99.90;;;;;;5016408;28;20057;-82
2023/02/09 09:48:44;;;;;;;23.73;14.40;;;-0.50;99.90;;;;;;5017941;28;20134;-82
2023/02/09 09:51:48;;;;;;;25.33;15.07;;;-0.50;99.90;;;;;;5019121;28;20022;-82
2023/02/09 09:54:24;;;;;;;29.50;14.53;;;-0.50;99.90;;;;;;5018254;28;20091;-82
2023/02/09 09:56:53;;;;;;;;;;;-0.30;99.90;;;;;;5017245;28;20029;-82
2023/02/09 09:59:41;;;;;;;25.87;16.10;;;-0.20;99.90;;;;;;5018119;28;19916;-82
2023/02/09 10:02:24;;;;;;;26.07;16.23;;;-0.20;99.90;;;;;;5018479;28;20903;-82
2023/02/09 10:04:50;;;;;;;28.67;15.87;;;-0.20;99.90;;;;;;5016070;28;20030;-82
2023/02/09 10:07:18;;;;;;;25.37;15.20;;;-0.10;99.90;;;;;;5019297;28;20090;-83
2023/02/09 10:09:52;;;;;;;25.63;15.07;;;-0.10;99.90;;;;;;5017727;28;20147;-83
2023/02/09 10:12:40;;;;;;;26.60;14.77;;;0.00;99.90;;;;;;5017383;28;20642;-83
2023/02/09 10:15:16;;;;;;;29.47;15.23;;;0.00;99.90;;;;;;5016762;28;20041;-83
2023/02/09 10:17:41;;;;;;;26.20;14.07;;;0.10;99.90;;;;;;5017990;28;20029;-82
2023/02/09 10:20:08;;;;;;;24.57;14.70;;;0.20;99.90;;;;;;5016103;28;20534;-83
2023/02/09 10:22:33;;;;;;;24.23;14.60;;;0.20;99.90;;;;;;5018237;28;20156;-83
2023/02/09 10:25:01;;;;;;;32.80;15.67;;;0.30;99.90;;;;;;5017388;28;20148;-83
2023/02/09 10:27:29;;;;;;;26.10;15.10;;;0.40;99.90;;;;;;5017097;28;20034;-83
2023/02/09 10:30:15;;;;;;;23.90;14.77;;;0.50;99.90;;;;;;5018155;28;20049;-82
2023/02/09 10:32:43;;;;;;;23.30;14.37;;;0.60;99.90;;;;;;5016037;28;20029;-83
2023/02/09 10:35:27;;;;;;;24.37;14.50;;;0.80;99.90;;;;;;5015317;28;20067;-83
2023/02/09 10:38:00;;;;;;;24.83;14.87;;;0.80;99.90;;;;;;5017595;28;20026;-83
2023/02/09 10:40:30;;;;;;;20.07;12.70;;;0.90;99.90;;;;;;5022613;28;20036;-83
2023/02/09 10:43:01;;;;;;;22.37;12.50;;;1.10;99.90;;;;;;5020983;28;20758;-83
2023/02/09 10:45:27;;;;;;;23.97;13.57;;;1.10;99.90;;;;;;5028436;28;20033;-73
2023/02/09 10:48:07;;;;;;;23.03;13.30;;;1.20;99.90;;;;;;5030103;28;20486;-73
2023/02/09 10:50:33;;;;;;;25.07;12.03;;;1.30;99.90;;;;;;5034102;28;20378;-73
2023/02/09 10:53:02;;;;;;;24.07;12.43;;;1.40;99.90;;;;;;5035115;28;20202;-73
2023/02/09 10:55:34;;;;;;;25.93;11.70;;;1.50;99.90;;;;;;5035710;28;20060;-74
2023/02/09 10:58:09;;;;;;;20.10;11.43;;;1.70;99.90;;;;;;5038890;28;20466;-73
2023/02/09 11:00:53;;;;;;;19.05;10.57;;;1.70;99.90;;;;;;5039600;28;20040;-73
2023/02/09 11:03:24;;;;;;;20.67;11.90;;;1.80;99.90;;;;;;5037988;28;20112;-73
2023/02/09 11:06:12;;;;;;;18.30;10.37;;;1.90;99.90;;;;;;5038190;28;20482;-73
2023/02/09 11:08:47;;;;;;;21.23;11.53;;;2.00;99.90;;;;;;5039699;28;20057;-73
2023/02/09 11:11:27;;;;;;;20.10;11.23;;;2.10;99.90;;;;;;5033738;28;20021;-73
2023/02/09 11:13:53;;;;;;;19.63;12.50;;;2.20;99.90;;;;;;5034842;28;20041;-74
2023/02/09 11:16:36;;;;;;;21.03;11.17;;;2.30;99.90;;;;;;5032717;28;20021;-82
2023/02/09 11:19:42;;;;;;;19.07;10.87;;;2.40;99.90;;;;;;5024893;28;20036;-82
2023/02/09 11:22:18;;;;;;;15.48;10.93;;;2.40;99.90;;;;;;5024178;28;20032;-82
2023/02/09 11:25:02;;;;;;;;;;;2.40;99.90;;;;;;5037052;28;20029;-81
2023/02/09 11:27:37;;;;;;;20.17;10.00;;;2.50;99.90;;;;;;5025306;28;19920;-82
2023/02/09 11:30:29;;;;;;;16.80;9.82;;;2.60;99.90;;;;;;5026355;28;20037;-82
2023/02/09 11:33:16;;;;;;;21.50;10.70;;;2.70;99.90;;;;;;5033847;28;20920;-82
2023/02/09 11:35:57;;;;;;;18.03;10.60;;;2.80;99.90;;;;;;5043082;28;20029;-81
2023/02/09 11:38:51;;;;;;;20.63;10.13;;;3.00;99.90;;;;;;5041978;28;20378;-81
2023/02/09 11:44:37;;;;;;;19.97;10.10;;;3.40;99.90;;;;;;5034234;28;20045;-81
2023/02/09 11:47:07;;;;;;;18.87;10.63;;;3.50;99.90;;;;;;5034311;28;20029;-82
2023/02/09 11:49:46;;;;;;;24.20;10.37;;;3.60;99.90;;;;;;5047061;28;20021;-81
2023/02/09 11:52:17;;;;;;;17.83;10.30;;;3.70;99.90;;;;;;5043489;28;20409;-82
2023/02/09 11:54:46;;;;;;;20.23;11.27;;;3.70;99.90;;;;;;5039778;28;20034;-82
2023/02/09 11:57:41;;;;;;;21.43;11.67;;;3.80;99.90;;;;;;5038238;28;20334;-81
2023/02/09 12:00:20;;;;;;;18.07;10.83;;;3.90;99.90;;;;;;5037609;28;20030;-81
2023/02/09 12:03:03;;;;;;;21.67;12.20;;;4.00;99.90;;;;;;5050933;28;20092;-80
2023/02/09 12:05:29;;;;;;;19.93;12.23;;;4.10;99.90;;;;;;5045044;28;20048;-81
2023/02/09 12:08:14;;;;;;;19.00;11.77;;;4.20;99.90;;;;;;5052547;28;20052;-80
2023/02/09 12:11:18;;;;;;;21.33;12.05;;;4.30;99.90;;;;;;5022953;28;20685;-82
2023/02/09 12:13:46;;;;;;;20.23;11.33;;;4.30;99.90;;;;;;5040003;28;20029;-79
2023/02/09 12:16:25;;;;;;;20.47;12.13;;;4.50;99.90;;;;;;5039100;28;20017;-80
2023/02/09 12:19:01;;;;;;;17.40;11.20;;;4.60;99.90;;;;;;5035717;28;20022;-81
2023/02/09 12:21:28;;;;;;;;;;;4.70;99.90;;;;;;5021461;28;20031;-82
2023/02/09 12:23:54;;;;;;;18.37;11.77;;;4.90;99.90;;;;;;5030676;28;19919;-79
2023/02/09 12:26:41;;;;;;;23.27;11.97;;;5.00;99.90;;;;;;5031812;28;20529;-82
2023/02/09 12:29:24;;;;;;;18.13;10.40;;;5.30;99.90;;;;;;5018172;28;20033;-82
2023/02/09 12:32:02;;;;;;;17.97;11.57;;;5.40;99.90;;;;;;5035811;28;20017;-79
2023/02/09 12:34:38;;;;;;;17.97;10.93;;;5.40;99.90;;;;;;5033093;28;20061;-80
2023/02/09 12:37:26;;;;;;;17.20;10.77;;;5.50;99.90;;;;;;5047704;28;20052;-81
2023/02/09 12:40:10;;;;;;;16.17;10.87;;;5.50;99.90;;;;;;5030721;28;20119;-82
2023/02/09 12:42:44;;;;;;;20.60;10.00;;;5.40;99.90;;;;;;5024021;28;20029;-82
2023/02/09 12:45:41;;;;;;;17.53;9.93;;;5.50;99.90;;;;;;5023502;28;20706;-83
2023/02/09 12:48:07;;;;;;;18.73;10.87;;;5.50;99.90;;;;;;5023429;28;20170;-83
2023/02/09 12:50:54;;;;;;;16.60;10.17;;;5.50;99.90;;;;;;5020717;28;20076;-82
2023/02/09 12:53:33;;;;;;;17.77;10.33;;;5.60;99.90;;;;;;5029381;28;20060;-83
2023/02/09 12:56:02;;;;;;;18.03;10.43;;;5.60;99.90;;;;;;5022562;28;20335;-80
2023/02/09 12:58:55;;;;;;;16.33;10.03;;;5.90;99.90;;;;;;5023071;28;20021;-81